createdAt,value
2022-09-11T00:01:08.373Z,101577.03
2022-09-11T00:03:37.337Z,101576.53
2022-09-11T00:06:10.635Z,101574.00
2022-09-11T00:08:39.733Z,101562.81
2022-09-11T00:11:10.045Z,101555.13
2022-09-11T00:13:39.644Z,101547.75
2022-09-11T00:16:18.890Z,101560.94
2022-09-11T00:18:46.896Z,101564.66
2022-09-11T00:21:16.829Z,101565.00
2022-09-11T00:23:44.932Z,101566.47
2022-09-11T00:26:13.042Z,101586.06
2022-09-11T00:28:40.799Z,101596.94
2022-09-11T00:31:11.543Z,101612.31
2022-09-11T00:33:40.072Z,101611.97
2022-09-11T00:36:10.198Z,101610.81
2022-09-11T00:38:40.222Z,101600.63
2022-09-11T00:41:11.595Z,101591.44
2022-09-11T00:44:00.607Z,101580.69
2022-09-11T00:46:35.640Z,101585.50
2022-09-11T00:49:07.711Z,101588.09
2022-09-11T00:51:37.823Z,101594.25
2022-09-11T00:54:07.241Z,101598.38
2022-09-11T00:56:38.371Z,101605.06
2022-09-11T00:59:07.779Z,101607.94
2022-09-11T01:01:35.661Z,101596.09
2022-09-11T01:04:05.130Z,101583.56
2022-09-11T01:06:33.652Z,101574.50
2022-09-11T01:09:01.442Z,101585.75
2022-09-11T01:11:44.733Z,101587.25
2022-09-11T01:14:34.621Z,101589.25
2022-09-11T01:17:19.321Z,101594.63
2022-09-11T01:20:06.273Z,101591.75
2022-09-11T01:22:53.291Z,101607.81
2022-09-11T01:25:28.505Z,101601.47
2022-09-11T01:28:00.917Z,101608.78
2022-09-11T01:30:34.484Z,101614.16
2022-09-11T01:33:11.688Z,101610.94
2022-09-11T01:35:49.537Z,101614.50
2022-09-11T01:38:22.882Z,101618.84
2022-09-11T01:40:55.537Z,101610.19
2022-09-11T01:43:30.556Z,101599.09
2022-09-11T01:46:00.424Z,101587.75
2022-09-11T01:48:34.341Z,101576.16
2022-09-11T01:51:04.504Z,101573.66
2022-09-11T01:53:37.979Z,101560.94
2022-09-11T01:56:10.834Z,101560.09
2022-09-11T01:58:43.504Z,101555.38
2022-09-11T02:01:15.978Z,101569.44
2022-09-11T02:03:48.234Z,101566.13
2022-09-11T02:06:22.782Z,101568.97
2022-09-11T02:08:55.043Z,101572.53
2022-09-11T02:11:23.742Z,101576.03
2022-09-11T02:13:58.543Z,101587.41
2022-09-11T02:16:40.396Z,101580.13
2022-09-11T02:19:12.374Z,101583.41
2022-09-11T02:21:40.744Z,101588.91
2022-09-11T02:24:09.455Z,101588.38
2022-09-11T02:26:41.092Z,101589.75
2022-09-11T02:29:10.373Z,101585.34
2022-09-11T02:31:38.515Z,101600.50
2022-09-11T02:34:06.278Z,101599.28
2022-09-11T02:36:55.894Z,101605.66
2022-09-11T02:39:42.095Z,101602.13
2022-09-11T02:42:27.294Z,101617.22
2022-09-11T02:45:07.304Z,101622.41
2022-09-11T02:47:44.533Z,101625.75
2022-09-11T02:50:23.681Z,101628.59
2022-09-11T02:53:03.494Z,101632.28
2022-09-11T02:55:42.704Z,101635.66
2022-09-11T02:58:17.489Z,101635.47
2022-09-11T03:00:48.127Z,101632.63
2022-09-11T03:03:16.014Z,101631.28
2022-09-11T03:05:44.007Z,101641.81
2022-09-11T03:08:12.978Z,101641.16
2022-09-11T03:10:40.711Z,101651.22
2022-09-11T03:13:08.413Z,101652.88
2022-09-11T03:15:36.133Z,101653.22
2022-09-11T03:18:05.725Z,101647.53
2022-09-11T03:20:34.188Z,101645.84
2022-09-11T03:23:01.956Z,101655.56
2022-09-11T03:25:29.797Z,101659.56
2022-09-11T03:27:57.493Z,101657.91
2022-09-11T03:30:25.263Z,101660.53
2022-09-11T03:32:53.220Z,101651.69
2022-09-11T03:35:22.337Z,101648.50
2022-09-11T03:37:50.469Z,101647.50
2022-09-11T03:40:20.229Z,101653.34
2022-09-11T03:42:47.944Z,101658.25
2022-09-11T03:45:15.910Z,101662.06
2022-09-11T03:47:44.142Z,101664.97
2022-09-11T03:50:12.839Z,101669.66
2022-09-11T03:52:43.443Z,101676.00
2022-09-11T03:55:11.542Z,101675.66
2022-09-11T03:57:40.547Z,101666.41
2022-09-11T04:00:10.039Z,101659.56
2022-09-11T04:02:37.781Z,101661.91
2022-09-11T04:05:06.329Z,101668.13
2022-09-11T04:07:34.593Z,101661.94
2022-09-11T04:10:03.772Z,101667.47
2022-09-11T04:12:31.495Z,101664.75
2022-09-11T04:14:59.208Z,101669.94
2022-09-11T04:17:26.904Z,101666.59
2022-09-11T04:19:54.598Z,101660.53
2022-09-11T04:22:23.940Z,101653.84
2022-09-11T04:24:51.938Z,101654.47
2022-09-11T04:27:23.366Z,101646.81
2022-09-11T04:29:51.843Z,101639.56
2022-09-11T04:32:19.567Z,101645.59
2022-09-11T04:34:47.281Z,101655.69
2022-09-11T04:37:16.548Z,101663.25
2022-09-11T04:39:44.476Z,101667.81
2022-09-11T04:42:12.525Z,101670.25
2022-09-11T04:44:42.056Z,101668.94
2022-09-11T04:47:09.776Z,101672.13
2022-09-11T04:49:37.454Z,101671.28
2022-09-11T04:52:07.260Z,101676.97
2022-09-11T04:54:36.882Z,101684.31
2022-09-11T04:57:04.832Z,101692.03
2022-09-11T04:59:32.625Z,101691.34
2022-09-11T05:02:01.732Z,101694.22
2022-09-11T05:04:29.435Z,101689.50
2022-09-11T05:06:57.154Z,101683.88
2022-09-11T05:09:25.203Z,101691.09
2022-09-11T05:11:52.953Z,101683.22
2022-09-11T05:14:20.705Z,101694.34
2022-09-11T05:16:48.571Z,101698.03
2022-09-11T05:19:17.727Z,101703.75
2022-09-11T05:21:45.627Z,101704.88
2022-09-11T05:24:13.351Z,101703.22
2022-09-11T05:26:41.102Z,101704.13
2022-09-11T05:29:11.842Z,101700.03
2022-09-11T05:31:39.807Z,101699.94
2022-09-11T05:34:08.667Z,101713.94
2022-09-11T05:36:38.059Z,101725.81
2022-09-11T05:39:05.948Z,101718.88
2022-09-11T05:41:33.652Z,101722.84
2022-09-11T05:44:01.379Z,101719.72
2022-09-11T05:46:29.104Z,101721.19
2022-09-11T05:48:56.794Z,101714.91
2022-09-11T05:51:24.485Z,101719.81
2022-09-11T05:53:55.496Z,101715.66
2022-09-11T05:56:25.060Z,101727.97
2022-09-11T05:58:53.190Z,101730.50
2022-09-11T06:01:22.568Z,101738.78
2022-09-11T06:03:51.101Z,101749.59
2022-09-11T06:06:21.189Z,101746.72
2022-09-11T06:08:50.132Z,101746.94
2022-09-11T06:11:21.705Z,101750.91
2022-09-11T06:13:50.371Z,101758.69
2022-09-11T06:16:20.481Z,101762.53
2022-09-11T06:18:49.985Z,101758.00
2022-09-11T06:21:20.582Z,101756.63
2022-09-11T06:23:49.242Z,101757.22
2022-09-11T06:26:19.991Z,101763.44
2022-09-11T06:28:48.137Z,101759.41
2022-09-11T06:31:17.452Z,101758.41
2022-09-11T06:33:45.836Z,101755.00
2022-09-11T06:36:16.298Z,101758.69
2022-09-11T06:38:44.847Z,101753.81
2022-09-11T06:41:16.301Z,101751.47
2022-09-11T06:43:45.784Z,101756.28
2022-09-11T06:46:23.009Z,101749.44
2022-09-11T06:48:52.316Z,101753.78
2022-09-11T06:51:26.172Z,101755.91
2022-09-11T06:53:57.938Z,101745.63
2022-09-11T06:56:27.089Z,101746.94
2022-09-11T06:58:56.618Z,101736.28
2022-09-11T07:01:25.242Z,101726.22
2022-09-11T07:03:54.337Z,101709.81
2022-09-11T07:06:24.203Z,101705.16
2022-09-11T07:08:53.315Z,101698.59
2022-09-11T07:11:22.657Z,101666.63
2022-09-11T07:13:50.419Z,101651.63
2022-09-11T07:16:22.555Z,101664.94
2022-09-11T07:18:50.312Z,101678.97
2022-09-11T07:21:20.960Z,101656.50
2022-09-11T07:23:50.417Z,101625.72
2022-09-11T07:26:19.690Z,101602.41
2022-09-11T07:28:48.875Z,101574.06
2022-09-11T07:31:21.040Z,101550.94
2022-09-11T07:33:51.948Z,101570.16
2022-09-11T07:36:21.506Z,101585.75
2022-09-11T07:38:51.035Z,101588.44
2022-09-11T07:41:21.316Z,101556.53
2022-09-11T07:43:53.586Z,101569.00
2022-09-11T07:46:21.663Z,101564.00
2022-09-11T07:48:50.744Z,101578.16
2022-09-11T07:51:19.866Z,101572.84
2022-09-11T07:53:50.093Z,101580.38
2022-09-11T07:56:19.733Z,101593.38
2022-09-11T07:58:48.023Z,101601.03
2022-09-11T08:01:17.576Z,101596.31
2022-09-11T08:03:45.704Z,101550.31
2022-09-11T08:06:21.883Z,101530.00
2022-09-11T08:08:53.452Z,101518.56
2022-09-11T08:11:21.997Z,101531.88
2022-09-11T08:13:51.700Z,101512.47
2022-09-11T08:16:19.989Z,101508.59
2022-09-11T08:18:48.569Z,101487.28
2022-09-11T08:21:17.965Z,101443.13
2022-09-11T08:23:47.395Z,101435.69
2022-09-11T08:26:17.526Z,101406.31
2022-09-11T08:28:45.767Z,101419.81
2022-09-11T08:31:14.316Z,101402.59
2022-09-11T08:33:42.169Z,101417.78
2022-09-11T08:36:14.654Z,101466.28
2022-09-11T08:38:44.746Z,101471.41
2022-09-11T08:41:22.425Z,101427.41
2022-09-11T08:43:54.815Z,101390.13
2022-09-11T08:46:26.508Z,101413.06
2022-09-11T08:49:03.758Z,101410.38
2022-09-11T08:51:32.292Z,101357.53
2022-09-11T08:54:03.469Z,101326.97
2022-09-11T08:56:33.467Z,101330.31
2022-09-11T08:59:14.991Z,101329.16
2022-09-11T09:01:50.139Z,101315.56
2022-09-11T09:04:51.619Z,101262.78
2022-09-11T09:07:32.102Z,101278.56
2022-09-11T09:10:08.260Z,101247.66
2022-09-11T09:12:45.673Z,101235.53
2022-09-11T09:15:27.417Z,101212.72
2022-09-11T09:18:00.889Z,101181.75
2022-09-11T09:20:32.909Z,101392.25
2022-09-11T09:23:05.034Z,101442.72
2022-09-11T09:25:39.440Z,101470.78
2022-09-11T09:28:15.909Z,101457.56
2022-09-11T09:30:50.434Z,101455.28
2022-09-11T09:33:27.358Z,101416.84
2022-09-11T09:35:55.501Z,101408.31
2022-09-11T09:38:27.321Z,101390.56
2022-09-11T09:41:24.282Z,101479.22
2022-09-11T09:44:01.068Z,101449.69
2022-09-11T09:46:36.508Z,101500.53
2022-09-11T09:49:04.734Z,101505.09
2022-09-11T09:51:32.519Z,101494.25
2022-09-11T09:54:02.607Z,101527.13
2022-09-11T09:56:35.544Z,101551.31
2022-09-11T09:59:14.275Z,101542.22
2022-09-11T10:01:50.880Z,101547.28
2022-09-11T10:04:22.535Z,101569.16
2022-09-11T10:06:53.021Z,101504.38
2022-09-11T10:09:24.269Z,101497.69
2022-09-11T10:11:58.205Z,101484.19
2022-09-11T10:14:50.012Z,101522.25
2022-09-11T10:17:21.516Z,101533.22
2022-09-11T10:19:50.834Z,101536.34
2022-09-11T10:22:27.592Z,101493.75
2022-09-11T10:25:10.591Z,101485.34
2022-09-11T10:27:46.754Z,101527.66
2022-09-11T10:30:29.911Z,101539.91
2022-09-11T10:33:03.482Z,101546.78
2022-09-11T10:35:32.647Z,101495.84
2022-09-11T10:38:06.952Z,101531.47
2022-09-11T10:40:34.750Z,101484.84
2022-09-11T10:43:03.837Z,101420.78
2022-09-11T10:45:33.327Z,101508.94
2022-09-11T10:48:15.851Z,101477.88
2022-09-11T10:50:44.938Z,101491.84
2022-09-11T10:53:20.301Z,101491.06
2022-09-11T10:56:00.156Z,101389.53
2022-09-11T10:58:35.208Z,101425.88
2022-09-11T11:01:03.033Z,101462.81
2022-09-11T11:03:30.922Z,101450.63
2022-09-11T11:06:07.780Z,101482.75
2022-09-11T11:08:56.348Z,101502.97
2022-09-11T11:11:34.885Z,101542.16
2022-09-11T11:14:21.166Z,101605.75
2022-09-11T11:16:59.586Z,101597.16
2022-09-11T11:19:59.770Z,101558.03
2022-09-11T11:23:31.684Z,101498.97
2022-09-11T11:26:09.088Z,101551.69
2022-09-11T11:29:04.274Z,101565.50
2022-09-11T11:31:44.495Z,101563.06
2022-09-11T11:34:38.202Z,101491.38
2022-09-11T11:37:11.708Z,101442.91
2022-09-11T11:39:55.511Z,101470.47
2022-09-11T11:42:28.878Z,101551.25
2022-09-11T11:45:04.030Z,101537.22
2022-09-11T11:47:36.558Z,101498.97
2022-09-11T11:50:12.575Z,101454.56
2022-09-11T11:52:52.326Z,101451.38
2022-09-11T11:55:26.022Z,101451.91
2022-09-11T11:58:04.826Z,101408.94
2022-09-11T12:00:40.057Z,101486.47
2022-09-11T12:03:16.141Z,101581.13
2022-09-11T12:05:44.041Z,101525.56
2022-09-11T12:08:14.805Z,101533.41
2022-09-11T12:10:56.454Z,101479.97
2022-09-11T12:13:30.723Z,101492.41
2022-09-11T12:16:07.314Z,101483.25
2022-09-11T12:18:38.510Z,101498.56
2022-09-11T12:21:42.040Z,101508.50
2022-09-11T12:24:18.687Z,101489.09
2022-09-11T12:26:48.080Z,101522.47
2022-09-11T12:29:52.693Z,101551.28
2022-09-11T12:32:29.701Z,101576.25
2022-09-11T12:35:03.924Z,101559.66
2022-09-11T12:37:38.540Z,101525.53
2022-09-11T12:40:17.048Z,101587.22
2022-09-11T12:42:57.313Z,101605.91
2022-09-11T12:45:47.839Z,101605.44
2022-09-11T12:48:18.040Z,101598.53
2022-09-11T12:50:55.169Z,101523.47
2022-09-11T12:53:27.396Z,101586.06
2022-09-11T12:55:59.841Z,101638.03
2022-09-11T12:58:34.109Z,101650.47
2022-09-11T13:01:06.930Z,101639.22
2022-09-11T13:03:36.079Z,101640.81
2022-09-11T13:06:07.909Z,101614.19
2022-09-11T13:08:39.837Z,101656.06
2022-09-11T13:11:40.133Z,101630.63
2022-09-11T13:14:49.359Z,101643.59
2022-09-11T13:17:25.799Z,101612.97
2022-09-11T13:19:57.731Z,101642.84
2022-09-11T13:22:27.656Z,101642.25
2022-09-11T13:25:07.353Z,101641.19
2022-09-11T13:27:39.107Z,101632.63
2022-09-11T13:30:09.792Z,101642.66
2022-09-11T13:32:37.610Z,101646.81
2022-09-11T13:35:11.060Z,101655.06
2022-09-11T13:37:42.910Z,101662.38
2022-09-11T13:40:20.264Z,101661.44
2022-09-11T13:42:48.835Z,101673.66
2022-09-11T13:45:20.259Z,101669.06
2022-09-11T13:47:47.916Z,101654.75
2022-09-11T13:50:18.832Z,101649.91
2022-09-11T13:52:47.540Z,101659.56
2022-09-11T13:55:19.219Z,101645.81
2022-09-11T13:57:58.556Z,101628.06
2022-09-11T14:00:45.811Z,101628.50
2022-09-11T14:03:20.218Z,101638.00
2022-09-11T14:05:53.919Z,101628.50
2022-09-11T14:08:28.008Z,101595.41
2022-09-11T14:10:59.160Z,101602.50
2022-09-11T14:13:32.984Z,101596.09
2022-09-11T14:16:04.609Z,101595.38
2022-09-11T14:18:37.086Z,101592.66
2022-09-11T14:21:13.493Z,101579.22
2022-09-11T14:23:44.534Z,101613.06
2022-09-11T14:26:16.328Z,101584.81
2022-09-11T14:28:48.145Z,101593.31
2022-09-11T14:31:30.661Z,101615.53
2022-09-11T14:34:17.908Z,101619.88
2022-09-11T14:36:53.080Z,101601.97
2022-09-11T14:39:34.902Z,101577.34
2022-09-11T14:42:03.301Z,101570.09
2022-09-11T14:44:32.769Z,101532.38
2022-09-11T14:47:02.134Z,101525.41
2022-09-11T14:49:30.374Z,101518.56
2022-09-11T14:51:59.877Z,101540.78
2022-09-11T14:54:31.133Z,101544.44
2022-09-11T14:56:59.398Z,101518.38
2022-09-11T14:59:29.004Z,101520.25
2022-09-11T15:01:58.502Z,101493.47
2022-09-11T15:04:29.509Z,101484.34
2022-09-11T15:06:57.899Z,101489.84
2022-09-11T15:09:26.022Z,101488.88
2022-09-11T15:11:54.118Z,101484.41
2022-09-11T15:14:38.627Z,101441.50
2022-09-11T15:17:12.618Z,101455.66
2022-09-11T15:19:41.977Z,101456.38
2022-09-11T15:22:11.593Z,101474.53
2022-09-11T15:24:39.318Z,101480.84
2022-09-11T15:27:07.427Z,101459.16
2022-09-11T15:29:36.281Z,101471.53
2022-09-11T15:32:04.662Z,101473.44
2022-09-11T15:34:33.171Z,101453.13
2022-09-11T15:37:02.626Z,101419.88
2022-09-11T15:39:30.468Z,101421.34
2022-09-11T15:41:58.227Z,101431.69
2022-09-11T15:44:28.652Z,101426.69
2022-09-11T15:46:58.486Z,101430.56
2022-09-11T15:49:29.292Z,101429.09
2022-09-11T15:51:57.974Z,101448.19
2022-09-11T15:54:28.108Z,101428.91
2022-09-11T15:56:56.299Z,101454.78
2022-09-11T15:59:24.422Z,101489.13
2022-09-11T16:01:52.244Z,101448.44
2022-09-11T16:04:23.054Z,101477.16
2022-09-11T16:06:51.555Z,101476.19
2022-09-11T16:09:21.170Z,101464.09
2022-09-11T16:12:48.787Z,101466.00
2022-09-11T16:15:16.648Z,101458.19
2022-09-11T16:20:15.281Z,101484.34
2022-09-11T16:22:43.827Z,101501.63
2022-09-11T16:25:12.653Z,101543.59
2022-09-11T16:27:40.814Z,101561.03
2022-09-11T16:30:42.850Z,101551.97
2022-09-11T16:33:02.349Z,101523.53
2022-09-11T16:35:36.860Z,101463.00
2022-09-11T16:38:07.176Z,101462.88
2022-09-11T16:40:35.881Z,101465.06
2022-09-11T16:43:04.141Z,101437.94
2022-09-11T16:45:33.813Z,101421.22
2022-09-11T16:48:02.518Z,101444.03
2022-09-11T16:50:30.364Z,101429.28
2022-09-11T16:53:48.187Z,101423.47
2022-09-11T16:56:18.236Z,101383.22
2022-09-11T16:58:46.572Z,101352.63
2022-09-11T17:01:18.133Z,101296.53
2022-09-11T17:03:47.803Z,101327.19
2022-09-11T17:06:16.329Z,101310.63
2022-09-11T17:08:44.620Z,101388.41
2022-09-11T17:11:15.328Z,101357.00
2022-09-11T17:13:44.109Z,101377.00
2022-09-11T17:16:16.805Z,101358.25
2022-09-11T17:18:48.690Z,101316.69
2022-09-11T17:21:17.433Z,101314.50
2022-09-11T17:23:45.668Z,101330.72
2022-09-11T17:26:16.779Z,101276.84
2022-09-11T17:28:47.272Z,101301.06
2022-09-11T17:31:16.765Z,101307.06
2022-09-11T17:33:45.510Z,101322.00
2022-09-11T17:36:17.218Z,101320.50
2022-09-11T17:38:58.892Z,101327.78
2022-09-11T17:41:27.250Z,101328.16
2022-09-11T17:43:55.169Z,101303.75
2022-09-11T17:46:24.490Z,101295.31
2022-09-11T17:48:52.641Z,101286.28
2022-09-11T17:51:24.183Z,101314.00
2022-09-11T17:53:54.091Z,101308.41
2022-09-11T17:56:24.754Z,101311.06
2022-09-11T17:58:53.507Z,101300.03
2022-09-11T18:01:22.306Z,101310.09
2022-09-11T18:03:54.170Z,101302.72
2022-09-11T18:06:26.450Z,101256.25
2022-09-11T18:08:56.588Z,101279.72
2022-09-11T18:11:25.093Z,101261.28
2022-09-11T18:13:54.555Z,101289.16
2022-09-11T18:16:22.469Z,101258.03
2022-09-11T18:18:50.419Z,101217.78
2022-09-11T18:21:18.592Z,101214.63
2022-09-11T18:23:49.723Z,101220.81
2022-09-11T18:26:23.068Z,101219.69
2022-09-11T18:28:51.836Z,101217.59
2022-09-11T18:31:20.246Z,101208.84
2022-09-11T18:33:54.606Z,101214.66
2022-09-11T18:36:23.521Z,101238.19
2022-09-11T18:38:53.353Z,101241.84
2022-09-11T18:41:22.227Z,101235.56
2022-09-11T18:43:50.358Z,101248.84
2022-09-11T18:46:20.990Z,101230.25
2022-09-11T18:48:50.274Z,101235.06
2022-09-11T18:51:19.566Z,101231.31
2022-09-11T18:53:48.676Z,101264.91
2022-09-11T18:56:17.763Z,101252.31
2022-09-11T18:58:47.744Z,101244.84
2022-09-11T19:01:17.278Z,101221.97
2022-09-11T19:03:46.048Z,101243.81
2022-09-11T19:06:16.271Z,101266.72
2022-09-11T19:08:46.544Z,101253.03
2022-09-11T19:11:16.706Z,101267.78
2022-09-11T19:13:46.752Z,101273.06
2022-09-11T19:16:15.112Z,101266.72
2022-09-11T19:18:43.138Z,101264.41
2022-09-11T19:21:13.203Z,101251.00
2022-09-11T19:23:42.981Z,101248.50
2022-09-11T19:26:13.317Z,101237.31
2022-09-11T19:28:43.232Z,101235.94
2022-09-11T19:31:15.307Z,101242.75
2022-09-11T19:33:44.921Z,101241.38
2022-09-11T19:36:14.941Z,101233.88
2022-09-11T19:38:42.744Z,101222.97
2022-09-11T19:41:12.741Z,101218.34
2022-09-11T19:43:42.016Z,101225.41
2022-09-11T19:46:13.601Z,101219.84
2022-09-11T19:48:41.909Z,101229.19
2022-09-11T19:51:11.673Z,101221.72
2022-09-11T19:53:40.104Z,101232.16
2022-09-11T19:56:08.139Z,101223.84
2022-09-11T19:58:36.410Z,101213.25
2022-09-11T20:01:06.703Z,101220.00
2022-09-11T20:03:35.896Z,101218.81
2022-09-11T20:06:04.066Z,101223.41
2022-09-11T20:08:46.282Z,101229.78
2022-09-11T20:11:16.151Z,101235.88
2022-09-11T20:13:44.323Z,101232.66
2022-09-11T20:16:15.452Z,101244.00
2022-09-11T20:18:45.172Z,101251.06
2022-09-11T20:21:15.587Z,101255.00
2022-09-11T20:23:44.418Z,101264.00
2022-09-11T20:26:17.233Z,101268.44
2022-09-11T20:28:46.329Z,101256.97
2022-09-11T20:31:15.725Z,101261.88
2022-09-11T20:33:46.103Z,101264.69
2022-09-11T20:36:14.411Z,101261.03
2022-09-11T20:38:42.206Z,101265.38
2022-09-11T20:41:11.678Z,101275.63
2022-09-11T20:43:39.443Z,101277.94
2022-09-11T20:46:09.111Z,101275.66
2022-09-11T20:48:37.046Z,101298.03
2022-09-11T20:51:08.568Z,101292.19
2022-09-11T20:53:36.334Z,101297.00
2022-09-11T20:56:06.184Z,101317.91
2022-09-11T20:58:34.294Z,101354.75
2022-09-11T21:01:02.374Z,101374.09
2022-09-11T21:03:31.073Z,101319.84
2022-09-11T21:06:00.567Z,101303.16
2022-09-11T21:08:29.745Z,101349.34
2022-09-11T21:11:01.899Z,101338.31
2022-09-11T21:13:29.805Z,101327.25
2022-09-11T21:15:57.708Z,101307.13
2022-09-11T21:18:25.623Z,101322.63
2022-09-11T21:20:57.012Z,101332.25
2022-09-11T21:23:25.062Z,101337.00
2022-09-11T21:25:54.178Z,101337.47
2022-09-11T21:28:22.035Z,101344.84
2022-09-11T21:30:49.894Z,101351.59
2022-09-11T21:33:18.453Z,101340.91
2022-09-11T21:35:52.362Z,101356.75
2022-09-11T21:38:20.780Z,101337.91
2022-09-11T21:40:48.623Z,101350.03
2022-09-11T21:43:18.465Z,101353.66
2022-09-11T21:45:46.451Z,101351.47
2022-09-11T21:48:14.501Z,101366.19
2022-09-11T21:50:42.363Z,101363.16
2022-09-11T21:53:11.597Z,101336.63
2022-09-11T21:55:40.441Z,101333.88
2022-09-11T21:58:08.800Z,101321.34
2022-09-11T22:00:42.539Z,101341.13
2022-09-11T22:03:12.201Z,101349.97
2022-09-11T22:05:43.402Z,101332.88
2022-09-11T22:08:11.495Z,101377.78
2022-09-11T22:10:42.844Z,101370.53
2022-09-11T22:13:11.158Z,101363.03
2022-09-11T22:15:42.044Z,101404.91
2022-09-11T22:18:10.448Z,101402.44
2022-09-11T22:20:38.786Z,101450.41
2022-09-11T22:23:08.097Z,101457.78
2022-09-11T22:25:36.936Z,101431.03
2022-09-11T22:28:05.217Z,101431.88
2022-09-11T22:30:33.453Z,101440.88
2022-09-11T22:33:02.835Z,101422.50
2022-09-11T22:35:31.011Z,101415.66
2022-09-11T22:37:58.688Z,101456.56
2022-09-11T22:40:26.530Z,101490.50
2022-09-11T22:42:54.239Z,101547.28
2022-09-11T22:45:21.970Z,101579.50
2022-09-11T22:47:49.850Z,101524.34
2022-09-11T22:50:19.322Z,101491.69
2022-09-11T22:52:47.094Z,101427.94
2022-09-11T22:55:15.051Z,101390.13
2022-09-11T22:57:42.771Z,101370.72
2022-09-11T23:00:13.163Z,101368.41
2022-09-11T23:02:40.962Z,101368.78
2022-09-11T23:05:26.953Z,101386.66
2022-09-11T23:07:56.440Z,101412.44
2022-09-11T23:10:24.942Z,101402.56
2022-09-11T23:12:53.101Z,101400.44
2022-09-11T23:15:21.505Z,101413.28
2022-09-11T23:17:49.263Z,101438.53
2022-09-11T23:20:18.798Z,101439.56
2022-09-11T23:22:46.695Z,101449.09
2022-09-11T23:25:15.927Z,101471.47
2022-09-11T23:27:45.319Z,101499.69
2022-09-11T23:30:13.522Z,101539.78
2022-09-11T23:32:42.043Z,101528.25
2022-09-11T23:35:10.812Z,101529.09
2022-09-11T23:37:42.341Z,101531.56
2022-09-11T23:40:13.079Z,101548.66
2022-09-11T23:42:42.209Z,101535.63
2022-09-11T23:45:12.688Z,101548.78
2022-09-11T23:47:40.770Z,101563.09
2022-09-11T23:50:09.610Z,101610.78
2022-09-11T23:52:39.438Z,101598.63
2022-09-11T23:55:08.094Z,101588.16
2022-09-11T23:57:35.875Z,101582.91
